Kezdőlap
METAR-TAF:

METAR-TAF

Repülőterek :

Bergerac, Franciaország

földrajzi szélesség: 44-49N, földrajzi hosszúság: 000-31E, magasság: 51 m

Jelenlegi meteorológiai megfigyelések

A jelentés 21 perccel ezelõtt készült, 09:30 UTC
Északkeleti szél 5 kt, északi és keleti között változik
Hőmérséklet 4°C
Páratartalom 65%
Légköri nyomás 1037 hPa
Látótávolság 10 km, vagy több
felhőtlen 1500 m magasságban, és nincs gomolyfelhõ

METAR: LFBE 200930Z AUTO 05005KT 360V080 CAVOK 04/M02 Q1037 NOSIG

Idő: 10:51 (09:51 UTC)

Előrejelzés

A jelentés 4 órával és 51 perccel ezelõtt készült, 05:00 UTC
Az előrejelzés 20-én 06 óra UTC és 21-én 06 óra UTC között érvényes
Észak-északkeleti szél 10 kt
Látótávolság 10 km, vagy több
felhőtlen 1500 m magasságban, és nincs gomolyfelhõ
20-én 20 óra UTC és 20-én 22 óra UTC között fokozatosan kialakuló
Keleti szél 5 kt

TAF: LFBE 200500Z 2006/2106 03010KT CAVOK BECMG 2020/2022 09005KT

Meteorológiai megfigyelések és előrejelzések több, mint 4000 repülőtéren (METAR és TAF jelentéseket).

A térképen piros és sárga pontok jelzik az elérhető meteorológiai állomásokat.

Mozgassa az egeret a pont fölött, hogy megjelenjen az állomás neve.

Azután kattintson az időjárási megfigyelések és előrejelzések megtekintéséhez.

A térkép megváltoztatása: kattintson a fekete keresztel jelölt zöld gombra ráközelítéshez, a vonallal jelölt zöld gombra távolításhoz, vagy a zöld nyilakra a szomszédos térképek eléréséhez.


METAR-TAF: